createdAt,value
2018-08-13T00:06:27.970Z,73.70
2018-08-13T00:09:14.619Z,73.30
2018-08-13T00:12:18.028Z,73.70
2018-08-13T00:15:34.918Z,72.20
2018-08-13T00:18:57.480Z,73.60
2018-08-13T00:21:55.964Z,75.30
2018-08-13T00:25:11.720Z,73.80
2018-08-13T00:52:00.826Z,74.30
2018-08-13T00:59:45.473Z,74.20
2018-08-13T01:04:27.234Z,73.00
2018-08-13T01:07:27.079Z,74.30
2018-08-13T01:14:02.322Z,74.80
2018-08-13T01:17:07.387Z,75.70
2018-08-13T01:23:06.105Z,75.60
2018-08-13T01:25:53.939Z,74.40
2018-08-13T01:30:26.503Z,74.50
2018-08-13T01:33:17.542Z,74.50
2018-08-13T01:44:17.585Z,73.70
2018-08-13T01:47:11.837Z,73.10
2018-08-13T01:50:03.418Z,72.70
2018-08-13T02:00:11.524Z,73.30
2018-08-13T02:03:02.901Z,73.70
2018-08-13T02:05:48.483Z,74.00
2018-08-13T02:08:35.079Z,73.90
2018-08-13T02:14:05.792Z,74.10
2018-08-13T02:16:57.022Z,73.60
2018-08-13T02:20:23.392Z,74.40
2018-08-13T02:26:30.714Z,72.90
2018-08-13T02:32:43.263Z,72.70
2018-08-13T02:35:32.863Z,72.90
2018-08-13T02:38:35.904Z,72.80
2018-08-13T02:41:39.122Z,72.70
2018-08-13T02:44:36.665Z,72.40
2018-08-13T02:47:24.205Z,72.60
2018-08-13T02:50:09.393Z,72.80
2018-08-13T02:53:29.964Z,73.50
2018-08-13T02:56:50.079Z,74.10
2018-08-13T02:59:56.779Z,76.20
2018-08-13T03:02:58.522Z,77.80
2018-08-13T03:05:44.797Z,77.30
2018-08-13T03:14:37.953Z,78.20
2018-08-13T03:17:44.956Z,80.10
2018-08-13T03:20:35.184Z,81.00
2018-08-13T03:23:47.986Z,81.20
2018-08-13T03:29:57.383Z,83.50
2018-08-13T03:41:45.132Z,85.40
2018-08-13T03:44:34.059Z,85.60
2018-08-13T03:47:43.868Z,83.40
2018-08-13T03:53:45.954Z,82.10
2018-08-13T03:56:47.838Z,82.10
2018-08-13T03:59:50.043Z,82.20
2018-08-13T04:12:46.123Z,87.70
2018-08-13T04:15:33.207Z,89.10
2018-08-13T04:18:13.586Z,90.10
2018-08-13T04:21:07.992Z,90.70
2018-08-13T04:24:02.441Z,91.20
2018-08-13T04:27:09.347Z,91.80
2018-08-13T04:33:00.333Z,96.00
2018-08-13T04:41:35.624Z,99.90
2018-08-13T04:44:34.143Z,99.90
2018-08-13T04:47:21.788Z,99.90
2018-08-13T04:50:03.063Z,99.90
2018-08-13T04:52:40.641Z,99.90
2018-08-13T04:55:16.682Z,99.90
2018-08-13T04:58:01.395Z,99.90
2018-08-13T05:00:39.675Z,99.90
2018-08-13T05:07:29.482Z,99.90
2018-08-13T05:10:21.554Z,99.90
2018-08-13T05:15:54.917Z,99.90
2018-08-13T05:18:47.116Z,99.90
2018-08-13T05:21:28.773Z,99.90
2018-08-13T05:24:30.658Z,99.90
2018-08-13T05:30:12.807Z,99.90
2018-08-13T05:32:46.619Z,99.90
2018-08-13T05:35:30.458Z,99.90
2018-08-13T05:40:46.870Z,99.90
2018-08-13T05:43:35.352Z,99.90
2018-08-13T05:46:23.276Z,99.90
2018-08-13T05:49:02.468Z,99.90
2018-08-13T05:51:49.932Z,99.90
2018-08-13T05:54:30.818Z,99.90
2018-08-13T05:59:59.086Z,99.90
2018-08-13T06:02:46.088Z,99.90
2018-08-13T06:05:25.579Z,99.90
2018-08-13T06:11:11.691Z,99.90
2018-08-13T06:13:48.878Z,99.90
2018-08-13T06:16:26.370Z,99.90
2018-08-13T06:19:11.555Z,99.90
2018-08-13T06:21:55.806Z,99.90
2018-08-13T06:24:39.022Z,99.90
2018-08-13T06:27:33.739Z,99.90
2018-08-13T06:30:23.549Z,99.90
2018-08-13T06:33:03.483Z,99.90
2018-08-13T06:36:15.732Z,99.90
2018-08-13T06:39:00.417Z,99.90
2018-08-13T06:41:56.360Z,99.90
2018-08-13T06:47:26.437Z,99.90
2018-08-13T06:50:06.753Z,99.90
2018-08-13T06:52:55.273Z,99.90
2018-08-13T06:55:46.633Z,99.90
2018-08-13T06:58:41.207Z,99.90
2018-08-13T07:01:27.042Z,99.90
2018-08-13T07:04:12.354Z,99.90
2018-08-13T07:06:58.935Z,99.90
2018-08-13T07:09:57.612Z,99.90
2018-08-13T07:12:35.854Z,99.90
2018-08-13T07:15:52.207Z,99.90
2018-08-13T07:18:32.982Z,99.90
2018-08-13T07:21:19.647Z,99.90
2018-08-13T07:24:03.890Z,99.90
2018-08-13T07:26:51.925Z,99.90
2018-08-13T07:29:44.318Z,99.90
2018-08-13T07:38:15.980Z,99.90
2018-08-13T07:41:03.950Z,99.90
2018-08-13T18:48:38.333Z,99.90
2018-08-13T18:51:30.457Z,99.90
2018-08-13T18:54:26.288Z,99.90
2018-08-13T19:01:27.602Z,99.90
2018-08-13T19:04:16.983Z,99.90
2018-08-13T19:07:17.373Z,99.90
2018-08-13T19:10:11.654Z,99.90
2018-08-13T19:13:19.720Z,99.90
2018-08-13T19:21:23.102Z,99.90
2018-08-13T19:24:17.943Z,99.90
2018-08-13T19:27:24.019Z,99.90
2018-08-13T19:33:58.127Z,99.90
2018-08-13T19:36:49.871Z,99.90
2018-08-13T19:46:04.375Z,99.90
2018-08-13T19:49:13.071Z,99.90
2018-08-13T23:53:20.499Z,99.90
2018-08-13T23:56:45.575Z,99.90
2018-08-13T23:59:42.254Z,99.90
